createdAt,value
2023-03-06T00:01:07.025Z,4.77
2023-03-06T00:03:29.641Z,4.81
2023-03-06T00:05:52.283Z,4.84
2023-03-06T00:08:15.705Z,4.82
2023-03-06T00:10:38.687Z,4.74
2023-03-06T00:13:04.098Z,4.64
2023-03-06T00:15:27.748Z,4.72
2023-03-06T00:17:50.405Z,4.78
2023-03-06T00:20:13.876Z,4.88
2023-03-06T00:22:36.606Z,4.74
2023-03-06T00:24:59.424Z,4.68
2023-03-06T00:27:22.044Z,4.65
2023-03-06T00:29:45.644Z,4.68
2023-03-06T00:32:09.102Z,4.78
2023-03-06T00:34:31.846Z,4.64
2023-03-06T00:36:54.529Z,4.60
2023-03-06T00:39:17.213Z,4.65
2023-03-06T00:41:39.810Z,4.60
2023-03-06T00:44:02.431Z,4.62
2023-03-06T00:46:25.153Z,4.67
2023-03-06T00:48:47.860Z,4.61
2023-03-06T00:51:13.800Z,4.61
2023-03-06T00:53:36.559Z,4.77
2023-03-06T00:55:59.072Z,4.89
2023-03-06T00:58:21.927Z,4.95
2023-03-06T01:00:45.597Z,4.91
2023-03-06T01:03:08.388Z,4.79
2023-03-06T01:05:34.328Z,4.77
2023-03-06T01:07:57.419Z,4.72
2023-03-06T01:10:21.636Z,4.75
2023-03-06T01:12:45.266Z,4.82
2023-03-06T01:15:08.523Z,4.71
2023-03-06T01:17:31.090Z,4.58
2023-03-06T01:19:53.615Z,4.64
2023-03-06T01:22:16.293Z,4.53
2023-03-06T01:24:39.189Z,4.41
2023-03-06T01:27:01.868Z,4.50
2023-03-06T01:29:26.381Z,4.44
2023-03-06T01:31:49.178Z,4.53
2023-03-06T01:34:12.152Z,4.47
2023-03-06T01:36:35.052Z,4.56
2023-03-06T01:38:58.776Z,4.54
2023-03-06T01:41:22.024Z,4.57
2023-03-06T01:43:46.453Z,4.50
2023-03-06T01:46:44.550Z,4.50
2023-03-06T01:49:15.927Z,4.50
2023-03-06T01:51:47.823Z,4.53
2023-03-06T01:54:22.943Z,4.43
2023-03-06T01:56:49.992Z,4.44
2023-03-06T01:59:13.623Z,4.49
2023-03-06T02:01:39.934Z,4.49
2023-03-06T02:04:02.754Z,4.37
2023-03-06T02:06:25.818Z,4.30
2023-03-06T02:08:52.352Z,4.44
2023-03-06T02:11:18.930Z,4.47
2023-03-06T02:13:44.779Z,4.54
2023-03-06T02:16:09.795Z,4.53
2023-03-06T02:18:33.940Z,4.56
2023-03-06T02:21:03.166Z,4.51
2023-03-06T02:24:02.079Z,4.46
2023-03-06T02:26:26.939Z,4.49
2023-03-06T02:28:51.125Z,4.54
2023-03-06T02:31:24.079Z,4.64
2023-03-06T02:33:46.823Z,4.60
2023-03-06T02:36:14.848Z,4.64
2023-03-06T02:38:45.599Z,4.58
2023-03-06T02:41:09.247Z,4.53
2023-03-06T02:43:35.536Z,4.51
2023-03-06T02:45:58.245Z,4.64
2023-03-06T02:48:21.556Z,4.70
2023-03-06T02:50:45.291Z,4.64
2023-03-06T02:53:09.519Z,4.64
2023-03-06T02:55:32.422Z,4.61
2023-03-06T02:57:55.699Z,4.61
2023-03-06T03:00:19.952Z,4.50
2023-03-06T03:02:42.943Z,4.57
2023-03-06T03:05:46.956Z,4.56
2023-03-06T03:08:20.107Z,4.64
2023-03-06T03:10:44.194Z,4.47
2023-03-06T03:13:09.449Z,4.51
2023-03-06T03:15:33.693Z,4.51
2023-03-06T03:17:56.736Z,4.58
2023-03-06T03:20:21.732Z,4.56
2023-03-06T03:22:53.811Z,4.32
2023-03-06T03:25:16.992Z,4.40
2023-03-06T03:27:40.033Z,4.41
2023-03-06T03:30:04.527Z,4.41
2023-03-06T03:32:27.584Z,4.56
2023-03-06T03:34:50.365Z,4.47
2023-03-06T03:37:13.747Z,4.47
2023-03-06T03:39:39.329Z,4.51
2023-03-06T03:42:01.958Z,4.57
2023-03-06T03:44:24.769Z,4.53
2023-03-06T03:46:48.377Z,4.56
2023-03-06T03:49:16.013Z,4.62
2023-03-06T03:51:39.947Z,4.56
2023-03-06T03:54:02.956Z,4.41
2023-03-06T03:56:31.550Z,4.50
2023-03-06T03:58:59.848Z,4.39
2023-03-06T04:01:27.611Z,4.51
2023-03-06T04:03:51.190Z,4.50
2023-03-06T04:06:14.962Z,4.54
2023-03-06T04:08:37.866Z,4.49
2023-03-06T04:11:00.689Z,4.54
2023-03-06T04:13:24.733Z,4.54
2023-03-06T04:15:50.150Z,4.60
2023-03-06T04:18:16.669Z,4.47
2023-03-06T04:20:40.012Z,4.44
2023-03-06T04:23:03.119Z,4.61
2023-03-06T04:25:25.706Z,4.68
2023-03-06T04:27:48.325Z,4.64
2023-03-06T04:30:12.035Z,4.62
2023-03-06T04:32:35.972Z,4.75
2023-03-06T04:34:58.733Z,4.77
2023-03-06T04:37:25.679Z,4.74
2023-03-06T04:39:50.639Z,4.64
2023-03-06T04:42:13.574Z,4.61
2023-03-06T04:44:36.104Z,4.61
2023-03-06T04:46:58.763Z,4.68
2023-03-06T04:49:21.393Z,4.74
2023-03-06T04:51:44.096Z,4.71
2023-03-06T04:54:06.757Z,4.51
2023-03-06T04:56:30.608Z,4.57
2023-03-06T04:58:53.518Z,4.60
2023-03-06T05:01:16.541Z,4.62
2023-03-06T05:03:39.198Z,4.75
2023-03-06T05:06:02.094Z,4.74
2023-03-06T05:08:24.944Z,4.72
2023-03-06T05:11:02.322Z,4.75
2023-03-06T05:13:26.157Z,4.81
2023-03-06T05:15:48.692Z,4.84
2023-03-06T05:18:11.472Z,4.85
2023-03-06T05:20:34.160Z,4.92
2023-03-06T05:22:56.982Z,4.89
2023-03-06T05:25:19.652Z,4.84
2023-03-06T05:27:42.540Z,4.72
2023-03-06T05:30:05.874Z,4.62
2023-03-06T05:32:28.776Z,4.75
2023-03-06T05:34:52.090Z,4.85
2023-03-06T05:37:14.794Z,4.85
2023-03-06T05:39:37.642Z,4.81
2023-03-06T05:42:01.025Z,4.82
2023-03-06T05:44:24.050Z,4.85
2023-03-06T05:46:49.364Z,4.85
2023-03-06T05:49:11.958Z,4.75
2023-03-06T05:51:34.652Z,4.71
2023-03-06T05:53:57.272Z,4.61
2023-03-06T05:56:21.806Z,4.60
2023-03-06T05:58:44.457Z,4.56
2023-03-06T06:01:16.442Z,4.67
2023-03-06T06:03:39.446Z,4.57
2023-03-06T06:06:07.559Z,4.71
2023-03-06T06:08:30.352Z,4.78
2023-03-06T06:10:53.546Z,4.93
2023-03-06T06:13:16.277Z,5.06
2023-03-06T06:15:39.073Z,5.02
2023-03-06T06:18:01.768Z,5.09
2023-03-06T06:20:25.212Z,5.13
2023-03-06T06:22:47.937Z,5.13
2023-03-06T06:25:10.579Z,5.08
2023-03-06T06:27:33.682Z,4.95
2023-03-06T06:29:56.268Z,4.89
2023-03-06T06:32:19.368Z,5.06
2023-03-06T06:34:42.076Z,5.15
2023-03-06T06:37:04.747Z,5.25
2023-03-06T06:39:27.617Z,5.15
2023-03-06T06:42:05.626Z,5.05
2023-03-06T06:44:34.280Z,5.15
2023-03-06T06:47:21.911Z,5.23
2023-03-06T06:49:40.796Z,5.27
2023-03-06T06:52:05.016Z,5.43
2023-03-06T06:54:28.343Z,5.60
2023-03-06T06:56:51.395Z,5.68
2023-03-06T06:59:17.019Z,5.68
2023-03-06T07:01:40.651Z,5.73
2023-03-06T07:04:03.835Z,5.54
2023-03-06T07:06:26.669Z,5.51
2023-03-06T07:08:49.634Z,5.47
2023-03-06T07:11:17.151Z,5.50
2023-03-06T07:13:40.083Z,5.46
2023-03-06T07:16:02.868Z,5.58
2023-03-06T07:18:25.652Z,6.01
2023-03-06T07:20:48.359Z,6.18
2023-03-06T07:23:13.515Z,6.11
2023-03-06T07:25:37.383Z,6.33
2023-03-06T07:28:00.357Z,6.36
2023-03-06T07:30:23.487Z,6.21
2023-03-06T07:32:46.261Z,6.39
2023-03-06T07:35:19.730Z,6.50
2023-03-06T07:37:43.804Z,6.67
2023-03-06T07:40:07.874Z,6.78
2023-03-06T07:42:30.551Z,7.02
2023-03-06T07:44:57.252Z,7.09
2023-03-06T07:47:20.144Z,7.47
2023-03-06T07:52:19.254Z,7.29
2023-03-06T07:54:42.119Z,7.69
2023-03-06T07:57:04.986Z,8.08
2023-03-06T07:59:27.766Z,7.88
2023-03-06T08:01:50.439Z,8.25
2023-03-06T08:04:13.545Z,8.14
2023-03-06T08:06:36.245Z,7.85
2023-03-06T08:08:59.277Z,7.67
2023-03-06T08:11:24.670Z,7.60
2023-03-06T08:13:48.902Z,7.52
2023-03-06T08:16:12.195Z,7.42
2023-03-06T08:18:35.201Z,7.64
2023-03-06T08:21:07.377Z,7.81
2023-03-06T08:23:30.547Z,7.93
2023-03-06T08:26:00.665Z,8.21
2023-03-06T08:28:23.440Z,8.59
2023-03-06T08:30:46.169Z,8.56
2023-03-06T08:33:10.327Z,8.06
2023-03-06T08:35:33.023Z,8.15
2023-03-06T08:37:57.134Z,7.90
2023-03-06T08:40:23.279Z,7.88
2023-03-06T08:42:47.928Z,8.25
2023-03-06T08:45:11.081Z,7.99
2023-03-06T08:47:35.504Z,8.09
2023-03-06T08:50:00.389Z,8.39
2023-03-06T08:52:23.418Z,8.41
2023-03-06T08:54:46.413Z,8.25
2023-03-06T08:57:09.341Z,7.85
2023-03-06T08:59:32.042Z,7.90
2023-03-06T09:01:55.328Z,7.66
2023-03-06T09:04:17.969Z,8.12
2023-03-06T09:06:43.414Z,8.53
2023-03-06T09:09:07.016Z,8.45
2023-03-06T09:11:29.914Z,7.66
2023-03-06T09:13:54.094Z,7.15
2023-03-06T09:16:16.985Z,7.09
2023-03-06T09:18:40.128Z,7.50
2023-03-06T09:21:04.076Z,7.74
2023-03-06T09:23:26.856Z,7.94
2023-03-06T09:25:58.039Z,8.32
2023-03-06T09:28:21.590Z,8.24
2023-03-06T09:30:44.359Z,8.48
2023-03-06T09:33:07.091Z,7.94
2023-03-06T09:35:29.891Z,8.43
2023-03-06T09:37:52.727Z,8.02
2023-03-06T09:40:49.414Z,8.48
2023-03-06T09:43:21.505Z,8.24
2023-03-06T09:45:45.301Z,8.38
2023-03-06T09:48:15.037Z,7.98
2023-03-06T09:50:55.268Z,8.21
2023-03-06T09:53:52.137Z,8.02
2023-03-06T09:56:49.688Z,7.93
2023-03-06T09:59:21.406Z,7.87
2023-03-06T10:02:12.705Z,7.85
2023-03-06T10:04:42.744Z,7.99
2023-03-06T10:07:28.374Z,8.14
2023-03-06T10:10:03.467Z,8.15
2023-03-06T10:13:05.818Z,8.05
2023-03-06T10:15:39.518Z,8.08
2023-03-06T10:18:04.638Z,7.90
2023-03-06T10:20:33.840Z,7.97
2023-03-06T10:23:03.138Z,7.94
2023-03-06T10:25:33.621Z,7.76
2023-03-06T10:28:11.242Z,7.57
2023-03-06T10:30:48.309Z,7.70
2023-03-06T10:33:23.257Z,7.77
2023-03-06T10:35:55.050Z,7.94
2023-03-06T10:38:28.206Z,7.94
2023-03-06T10:41:13.277Z,7.93
2023-03-06T10:43:39.549Z,8.21
2023-03-06T10:46:04.029Z,8.42
2023-03-06T10:48:29.344Z,8.33
2023-03-06T10:50:55.082Z,8.52
2023-03-06T10:53:31.028Z,8.57
2023-03-06T10:56:34.895Z,8.59
2023-03-06T10:59:25.576Z,9.00
2023-03-06T11:01:50.671Z,9.21
2023-03-06T11:04:28.790Z,9.45
2023-03-06T11:07:21.886Z,9.18
2023-03-06T11:10:08.024Z,8.85
2023-03-06T11:12:33.544Z,9.05
2023-03-06T11:15:14.340Z,9.07
2023-03-06T11:17:50.412Z,9.03
2023-03-06T11:20:20.052Z,9.12
2023-03-06T11:22:49.273Z,9.42
2023-03-06T11:25:15.154Z,9.97
2023-03-06T11:27:42.766Z,9.49
2023-03-06T11:30:17.943Z,9.14
2023-03-06T11:32:48.083Z,9.43
2023-03-06T11:35:16.330Z,9.55
2023-03-06T11:37:44.094Z,9.36
2023-03-06T11:40:19.500Z,9.69
2023-03-06T11:42:47.970Z,9.73
2023-03-06T11:45:36.825Z,10.01
2023-03-06T11:48:14.733Z,10.03
2023-03-06T11:50:39.737Z,10.59
2023-03-06T11:53:05.223Z,10.79
2023-03-06T11:55:54.176Z,10.97
2023-03-06T11:58:41.024Z,11.45
2023-03-06T12:01:13.588Z,11.71
2023-03-06T12:04:04.920Z,11.99
2023-03-06T12:06:30.245Z,11.97
2023-03-06T12:09:19.364Z,11.69
2023-03-06T12:12:02.882Z,11.18
2023-03-06T12:14:33.097Z,11.65
2023-03-06T12:17:22.852Z,11.37
2023-03-06T12:20:20.227Z,10.88
2023-03-06T12:22:44.319Z,10.62
2023-03-06T12:25:31.482Z,10.52
2023-03-06T12:28:19.353Z,10.18
2023-03-06T12:31:16.323Z,10.49
2023-03-06T12:34:00.304Z,10.56
2023-03-06T12:36:47.106Z,10.73
2023-03-06T12:39:40.142Z,10.88
2023-03-06T12:42:23.745Z,11.08
2023-03-06T12:44:49.295Z,11.44
2023-03-06T12:47:15.684Z,11.48
2023-03-06T12:49:46.384Z,11.78
2023-03-06T12:52:24.779Z,11.90
2023-03-06T12:54:54.281Z,11.78
2023-03-06T12:57:16.931Z,12.06
2023-03-06T12:59:44.299Z,11.82
2023-03-06T13:02:10.102Z,11.30
2023-03-06T13:05:00.693Z,11.30
2023-03-06T13:07:49.155Z,11.01
2023-03-06T13:10:25.509Z,11.23
2023-03-06T13:12:57.333Z,11.35
2023-03-06T13:15:38.078Z,11.48
2023-03-06T13:18:01.569Z,11.20
2023-03-06T13:20:35.108Z,11.23
2023-03-06T13:22:58.635Z,10.89
2023-03-06T13:25:21.358Z,10.83
2023-03-06T13:27:53.615Z,10.86
2023-03-06T13:30:27.269Z,10.86
2023-03-06T13:32:52.860Z,10.93
2023-03-06T13:35:33.486Z,10.84
2023-03-06T13:37:57.259Z,11.16
2023-03-06T13:40:30.370Z,11.38
2023-03-06T13:42:53.208Z,11.50
2023-03-06T13:45:38.681Z,11.62
2023-03-06T13:48:37.580Z,11.31
2023-03-06T13:50:48.949Z,11.16
2023-03-06T13:53:49.051Z,11.30
2023-03-06T13:56:26.993Z,11.23
2023-03-06T13:58:49.647Z,11.14
2023-03-06T14:01:34.016Z,11.01
2023-03-06T14:04:17.162Z,10.80
2023-03-06T14:06:48.278Z,10.66
2023-03-06T14:09:24.042Z,10.28
2023-03-06T14:12:02.491Z,10.22
2023-03-06T14:14:43.205Z,10.28
2023-03-06T14:17:06.294Z,10.45
2023-03-06T14:19:32.742Z,10.38
2023-03-06T14:21:57.614Z,10.42
2023-03-06T14:24:48.119Z,10.30
2023-03-06T14:27:18.816Z,10.44
2023-03-06T14:29:41.572Z,10.46
2023-03-06T14:32:10.803Z,10.51
2023-03-06T14:34:40.955Z,10.55
2023-03-06T14:37:07.695Z,10.59
2023-03-06T14:39:36.341Z,10.49
2023-03-06T14:42:28.995Z,10.38
2023-03-06T14:45:18.628Z,10.34
2023-03-06T14:47:41.417Z,10.34
2023-03-06T14:50:26.296Z,10.37
2023-03-06T14:53:04.838Z,10.22
2023-03-06T14:55:29.731Z,10.11
2023-03-06T14:58:00.548Z,10.04
2023-03-06T15:00:28.041Z,10.05
2023-03-06T15:02:52.689Z,10.08
2023-03-06T15:05:29.552Z,10.10
2023-03-06T15:07:55.437Z,10.20
2023-03-06T15:10:31.581Z,10.22
2023-03-06T15:12:54.663Z,10.22
2023-03-06T15:15:17.757Z,10.24
2023-03-06T15:17:42.424Z,10.24
2023-03-06T15:20:08.263Z,10.22
2023-03-06T15:22:40.313Z,10.20
2023-03-06T15:25:32.548Z,10.24
2023-03-06T15:28:02.395Z,10.13
2023-03-06T15:30:29.861Z,10.03
2023-03-06T15:33:08.256Z,9.89
2023-03-06T15:35:33.905Z,9.91
2023-03-06T15:37:58.622Z,10.14
2023-03-06T15:40:23.563Z,10.17
2023-03-06T15:42:46.570Z,10.03
2023-03-06T15:45:20.354Z,10.08
2023-03-06T15:47:44.864Z,9.98
2023-03-06T15:50:18.779Z,9.50
2023-03-06T15:52:41.653Z,9.28
2023-03-06T15:55:04.689Z,8.84
2023-03-06T15:57:31.432Z,8.60
2023-03-06T15:59:54.540Z,8.32
2023-03-06T16:02:19.846Z,8.09
2023-03-06T16:04:42.664Z,7.85
2023-03-06T16:07:05.325Z,7.78
2023-03-06T16:09:28.101Z,7.37
2023-03-06T16:11:51.046Z,7.18
2023-03-06T16:14:23.690Z,7.09
2023-03-06T16:16:46.817Z,7.01
2023-03-06T16:19:25.392Z,6.98
2023-03-06T16:21:49.142Z,6.95
2023-03-06T16:24:15.092Z,6.83
2023-03-06T16:26:38.483Z,6.90
2023-03-06T16:29:02.128Z,6.70
2023-03-06T16:31:25.839Z,6.67
2023-03-06T16:33:48.650Z,6.83
2023-03-06T16:36:23.315Z,6.73
2023-03-06T16:38:46.278Z,6.71
2023-03-06T16:41:09.261Z,6.66
2023-03-06T16:43:31.893Z,6.64
2023-03-06T16:45:55.529Z,6.66
2023-03-06T16:48:18.401Z,6.69
2023-03-06T16:50:41.218Z,6.64
2023-03-06T16:53:04.693Z,6.61
2023-03-06T16:55:27.867Z,6.57
2023-03-06T16:57:51.038Z,6.67
2023-03-06T17:00:15.826Z,6.77
2023-03-06T17:02:39.714Z,6.66
2023-03-06T17:05:02.462Z,6.64
2023-03-06T17:07:25.470Z,6.43
2023-03-06T17:09:48.242Z,6.43
2023-03-06T17:12:11.103Z,6.30
2023-03-06T17:14:34.206Z,6.12
2023-03-06T17:16:58.427Z,6.08
2023-03-06T17:19:21.255Z,5.91
2023-03-06T17:21:44.403Z,5.97
2023-03-06T17:24:07.808Z,6.01
2023-03-06T17:26:30.940Z,5.99
2023-03-06T17:28:55.964Z,5.95
2023-03-06T17:31:21.757Z,5.95
2023-03-06T17:33:45.051Z,5.95
2023-03-06T17:36:09.035Z,6.04
2023-03-06T17:38:32.085Z,5.95
2023-03-06T17:40:55.242Z,6.06
2023-03-06T17:43:17.950Z,6.11
2023-03-06T17:45:40.596Z,6.05
2023-03-06T17:48:03.408Z,6.08
2023-03-06T17:50:26.280Z,5.92
2023-03-06T17:52:49.133Z,5.91
2023-03-06T17:55:13.027Z,5.92
2023-03-06T17:57:35.906Z,5.94
2023-03-06T17:59:59.203Z,6.05
2023-03-06T18:02:22.059Z,5.95
2023-03-06T18:04:45.094Z,5.91
2023-03-06T18:07:08.606Z,5.84
2023-03-06T18:09:31.587Z,5.74
2023-03-06T18:11:54.898Z,5.67
2023-03-06T18:14:17.934Z,5.70
2023-03-06T18:16:41.051Z,5.70
2023-03-06T18:19:04.186Z,5.67
2023-03-06T18:21:27.127Z,5.57
2023-03-06T18:23:50.032Z,5.60
2023-03-06T18:26:14.001Z,5.60
2023-03-06T18:28:37.043Z,5.57
2023-03-06T18:31:00.121Z,5.65
2023-03-06T18:33:23.306Z,5.63
2023-03-06T18:35:46.129Z,5.47
2023-03-06T18:38:09.105Z,5.53
2023-03-06T18:40:32.102Z,5.56
2023-03-06T18:42:55.122Z,5.63
2023-03-06T18:45:18.057Z,5.67
2023-03-06T18:47:41.103Z,5.71
2023-03-06T18:50:03.955Z,5.68
2023-03-06T18:52:27.311Z,5.64
2023-03-06T18:54:50.995Z,5.65
2023-03-06T18:57:13.559Z,5.60
2023-03-06T18:59:37.003Z,5.65
2023-03-06T19:01:59.956Z,5.71
2023-03-06T19:04:23.089Z,5.77
2023-03-06T19:06:45.934Z,5.84
2023-03-06T19:09:11.320Z,5.87
2023-03-06T19:11:34.465Z,5.84
2023-03-06T19:13:58.083Z,5.61
2023-03-06T19:16:29.943Z,5.78
2023-03-06T19:18:55.708Z,5.78
2023-03-06T19:21:21.011Z,5.78
2023-03-06T19:23:45.605Z,5.75
2023-03-06T19:26:10.495Z,5.71
2023-03-06T19:28:35.227Z,5.60
2023-03-06T19:31:00.197Z,5.56
2023-03-06T19:33:23.182Z,5.35
2023-03-06T19:35:46.587Z,5.42
2023-03-06T19:38:10.314Z,5.30
2023-03-06T19:40:34.142Z,5.13
2023-03-06T19:42:57.008Z,5.09
2023-03-06T19:45:19.943Z,5.02
2023-03-06T19:47:42.756Z,5.05
2023-03-06T19:50:06.132Z,5.15
2023-03-06T19:52:29.136Z,5.15
2023-03-06T19:54:52.483Z,5.12
2023-03-06T19:57:15.453Z,5.16
2023-03-06T19:59:39.978Z,5.15
2023-03-06T20:02:02.834Z,5.18
2023-03-06T20:04:26.294Z,5.05
2023-03-06T20:06:52.605Z,5.06
2023-03-06T20:09:15.569Z,5.04
2023-03-06T20:11:38.820Z,5.20
2023-03-06T20:14:04.213Z,5.23
2023-03-06T20:16:30.668Z,5.36
2023-03-06T20:18:54.712Z,5.39
2023-03-06T20:21:17.671Z,5.50
2023-03-06T20:23:41.780Z,5.29
2023-03-06T20:26:06.797Z,5.22
2023-03-06T20:28:30.464Z,5.33
2023-03-06T20:30:53.699Z,5.25
2023-03-06T20:33:16.946Z,5.33
2023-03-06T20:35:42.123Z,5.16
2023-03-06T20:38:05.394Z,5.22
2023-03-06T20:40:28.411Z,5.23
2023-03-06T20:42:51.437Z,5.35
2023-03-06T20:45:15.566Z,5.44
2023-03-06T20:47:38.502Z,5.56
2023-03-06T20:50:01.485Z,5.65
2023-03-06T20:52:24.557Z,5.71
2023-03-06T20:54:48.210Z,5.85
2023-03-06T20:57:10.868Z,5.92
2023-03-06T20:59:33.702Z,5.88
2023-03-06T21:01:56.574Z,5.67
2023-03-06T21:04:19.434Z,5.58
2023-03-06T21:06:46.498Z,5.63
2023-03-06T21:09:10.917Z,5.83
2023-03-06T21:11:34.938Z,5.78
2023-03-06T21:13:57.819Z,5.77
2023-03-06T21:16:22.362Z,5.75
2023-03-06T21:18:45.649Z,5.78
2023-03-06T21:21:19.685Z,5.60
2023-03-06T21:23:42.534Z,5.77
2023-03-06T21:26:06.002Z,5.77
2023-03-06T21:28:29.018Z,5.85
2023-03-06T21:30:52.039Z,5.74
2023-03-06T21:33:20.620Z,5.54
2023-03-06T21:35:44.993Z,5.53
2023-03-06T21:38:08.418Z,5.53
2023-03-06T21:40:31.309Z,5.54
2023-03-06T21:42:53.935Z,5.43
2023-03-06T21:45:16.628Z,5.47
2023-03-06T21:47:41.006Z,5.42
2023-03-06T21:50:08.090Z,5.35
2023-03-06T21:52:30.760Z,5.48
2023-03-06T21:54:53.387Z,5.42
2023-03-06T21:57:16.016Z,5.42
2023-03-06T21:59:39.533Z,5.32
2023-03-06T22:02:02.641Z,5.39
2023-03-06T22:04:25.230Z,5.29
2023-03-06T22:06:47.833Z,5.13
2023-03-06T22:09:12.938Z,5.05
2023-03-06T22:11:38.721Z,5.22
2023-03-06T22:14:01.309Z,5.18
2023-03-06T22:16:24.624Z,5.19
2023-03-06T22:18:49.637Z,5.18
2023-03-06T22:21:15.334Z,5.22
2023-03-06T22:23:38.684Z,5.22
2023-03-06T22:26:04.091Z,5.23
2023-03-06T22:28:27.257Z,5.08
2023-03-06T22:30:50.027Z,5.16
2023-03-06T22:33:13.181Z,5.06
2023-03-06T22:35:35.968Z,4.88
2023-03-06T22:37:58.797Z,4.79
2023-03-06T22:40:21.533Z,4.71
2023-03-06T22:42:44.054Z,4.75
2023-03-06T22:45:07.171Z,4.79
2023-03-06T22:47:29.798Z,4.79
2023-03-06T22:49:52.477Z,4.78
2023-03-06T22:52:15.384Z,4.64
2023-03-06T22:54:37.975Z,4.67
2023-03-06T22:57:00.614Z,4.75
2023-03-06T22:59:23.199Z,4.79
2023-03-06T23:01:45.815Z,4.92
2023-03-06T23:04:11.399Z,4.89
2023-03-06T23:06:36.590Z,4.93
2023-03-06T23:09:14.623Z,5.09
2023-03-06T23:11:55.708Z,5.16
2023-03-06T23:14:37.677Z,5.25
2023-03-06T23:17:19.194Z,5.12
2023-03-06T23:20:00.604Z,5.11
2023-03-06T23:22:42.194Z,4.99
2023-03-06T23:25:23.614Z,5.06
2023-03-06T23:27:46.292Z,4.98
2023-03-06T23:30:09.621Z,4.77
2023-03-06T23:32:33.739Z,4.62
2023-03-06T23:34:56.324Z,4.60
2023-03-06T23:37:18.981Z,4.65
2023-03-06T23:39:42.438Z,4.60
2023-03-06T23:42:05.513Z,4.60
2023-03-06T23:44:28.249Z,4.50
2023-03-06T23:46:50.993Z,4.53
2023-03-06T23:49:34.489Z,4.44
2023-03-06T23:51:57.527Z,4.46
2023-03-06T23:54:20.134Z,4.30
2023-03-06T23:56:42.746Z,4.36
2023-03-06T23:59:05.656Z,4.33
